Time;durP1;ratioP1;P1;durP2;ratioP2;P2;SDS_P1;SDS_P2;PMS_P1;PMS_P2;Temp;Humidity;BMP_temperature;BMP_pressure;BME280_temperature;BME280_humidity;BME280_pressure;Samples;Min_cycle;Max_cycle;Signal;HPM_P1;HPM_P2
2022/04/03 00:00:51;;;;;;;4.90;4.13;;;3.50;74.20;;;;;;923631;150;27307;-74
2022/04/03 00:03:17;;;;;;;4.93;4.43;;;3.50;74.30;;;;;;928992;150;27814;-74
2022/04/03 00:05:44;;;;;;;5.97;4.20;;;3.40;74.30;;;;;;946502;147;27399;-74
2022/04/03 00:08:12;;;;;;;4.53;4.00;;;3.40;74.40;;;;;;930587;150;27324;-74
2022/04/03 00:10:37;;;;;;;5.40;4.20;;;3.40;74.50;;;;;;946590;147;27410;-74
2022/04/03 00:13:04;;;;;;;6.33;5.13;;;3.30;74.60;;;;;;923744;150;27417;-74
2022/04/03 00:15:30;;;;;;;5.33;4.87;;;3.30;74.70;;;;;;944900;147;27319;-74
2022/04/03 00:17:57;;;;;;;4.97;4.40;;;3.20;74.50;;;;;;924495;150;27461;-74
2022/04/03 00:20:23;;;;;;;4.93;3.97;;;3.20;74.90;;;;;;947063;147;27330;-74
2022/04/03 00:22:50;;;;;;;5.07;3.63;;;3.20;75.00;;;;;;923360;150;27445;-74
2022/04/03 00:25:18;;;;;;;5.27;4.10;;;3.10;75.10;;;;;;945893;147;27454;-74
2022/04/03 00:27:43;;;;;;;3.77;3.43;;;3.10;75.20;;;;;;945278;147;27296;-74
2022/04/03 00:30:10;;;;;;;3.23;2.93;;;3.00;75.30;;;;;;938578;149;27286;-74
2022/04/03 00:32:36;;;;;;;4.43;4.03;;;3.00;75.50;;;;;;939873;149;27369;-73
2022/04/03 00:35:03;;;;;;;3.67;3.37;;;2.90;75.60;;;;;;930380;150;27383;-74
2022/04/03 00:37:29;;;;;;;3.57;3.27;;;2.90;75.70;;;;;;947401;147;27356;-74
2022/04/03 00:39:56;;;;;;;4.13;3.83;;;2.80;75.80;;;;;;947663;147;27749;-74
2022/04/03 00:42:22;;;;;;;4.03;3.60;;;2.80;76.00;;;;;;924830;150;27338;-74
2022/04/03 00:44:49;;;;;;;3.93;3.53;;;2.70;76.10;;;;;;929665;150;27374;-74
2022/04/03 00:47:16;;;;;;;3.60;3.00;;;2.70;76.30;;;;;;945555;147;27346;-74
2022/04/03 00:49:42;;;;;;;3.70;3.40;;;2.70;76.30;;;;;;929938;150;27361;-74
2022/04/03 00:52:09;;;;;;;3.80;3.40;;;2.70;76.60;;;;;;942145;148;27302;-74
2022/04/03 00:54:35;;;;;;;3.70;3.40;;;2.60;76.80;;;;;;958552;146;27264;-74
2022/04/03 00:57:08;;;;;;;3.77;3.47;;;2.60;76.80;;;;;;942589;149;27475;-74
2022/04/03 00:59:34;;;;;;;3.60;3.30;;;2.60;76.90;;;;;;939742;149;27349;-74
2022/04/03 01:02:02;;;;;;;4.03;3.63;;;2.60;77.00;;;;;;958175;146;27401;-74
2022/04/03 01:04:28;;;;;;;4.47;4.07;;;2.60;77.10;;;;;;961828;146;27303;-74
2022/04/03 01:06:54;;;;;;;4.10;3.70;;;2.60;77.30;;;;;;958620;146;27350;-74
2022/04/03 01:09:21;;;;;;;3.63;3.33;;;2.60;77.40;;;;;;960635;146;27715;-74
2022/04/03 01:11:47;;;;;;;3.83;3.53;;;2.60;77.50;;;;;;939464;149;27490;-74
2022/04/03 01:14:15;;;;;;;3.97;3.60;;;2.60;77.50;;;;;;960293;146;27387;-74
2022/04/03 01:16:40;;;;;;;3.90;3.50;;;2.60;77.60;;;;;;940047;148;27300;-74
2022/04/03 01:19:07;;;;;;;4.43;3.87;;;2.60;77.70;;;;;;963114;145;27368;-74
2022/04/03 01:21:34;;;;;;;4.60;4.13;;;2.60;77.70;;;;;;959318;146;27459;-74
2022/04/03 01:24:00;;;;;;;3.80;3.50;;;2.60;77.80;;;;;;939782;149;27348;-73
2022/04/03 01:26:28;;;;;;;4.27;3.87;;;2.60;77.70;;;;;;944814;149;27309;-74
2022/04/03 01:28:53;;;;;;;4.20;3.80;;;2.60;77.70;;;;;;962618;145;27263;-74
2022/04/03 01:31:20;;;;;;;3.43;3.13;;;2.60;77.70;;;;;;959637;145;27311;-74
2022/04/03 01:33:47;;;;;;;3.70;3.40;;;2.50;77.70;;;;;;941044;149;27377;-74
2022/04/03 01:36:13;;;;;;;4.33;3.60;;;2.50;77.70;;;;;;960710;145;27318;-74
2022/04/03 01:38:40;;;;;;;4.20;3.80;;;2.40;77.60;;;;;;956870;146;27377;-74
2022/04/03 01:41:06;;;;;;;3.07;2.77;;;2.40;77.70;;;;;;946793;148;27412;-74
2022/04/03 01:43:33;;;;;;;3.67;3.37;;;2.30;77.70;;;;;;942467;149;27317;-74
2022/04/03 01:45:59;;;;;;;4.43;3.30;;;2.30;77.70;;;;;;941178;149;27382;-74
2022/04/03 01:48:26;;;;;;;3.80;3.50;;;2.20;77.80;;;;;;958243;146;27319;-74
2022/04/03 01:50:53;;;;;;;5.07;3.90;;;2.10;77.90;;;;;;958363;146;27315;-74
2022/04/03 01:53:19;;;;;;;4.90;4.30;;;2.10;78.10;;;;;;942575;149;27376;-74
2022/04/03 01:55:46;;;;;;;5.43;4.03;;;2.00;78.20;;;;;;961176;145;27332;-74
2022/04/03 01:58:12;;;;;;;4.20;3.80;;;2.00;78.30;;;;;;938173;149;27365;-74
2022/04/03 02:00:39;;;;;;;4.83;3.70;;;1.90;78.50;;;;;;961126;146;27402;-74
2022/04/03 02:03:06;;;;;;;4.03;3.63;;;1.90;78.60;;;;;;940883;149;27358;-73
2022/04/03 02:05:32;;;;;;;4.73;4.33;;;1.80;78.80;;;;;;959671;146;27406;-74
2022/04/03 02:07:59;;;;;;;3.90;3.60;;;1.80;78.90;;;;;;943151;149;27293;-74
2022/04/03 02:10:25;;;;;;;5.00;4.50;;;1.80;79.00;;;;;;957718;146;27461;-74
2022/04/03 02:12:52;;;;;;;4.03;3.70;;;1.80;79.30;;;;;;957673;146;27411;-73
2022/04/03 02:15:18;;;;;;;4.70;4.27;;;1.70;79.30;;;;;;959539;146;27328;-73
2022/04/03 02:17:45;;;;;;;4.20;3.80;;;1.70;79.50;;;;;;943175;149;27858;-74
2022/04/03 02:20:12;;;;;;;3.77;3.47;;;1.70;79.50;;;;;;959214;146;27299;-74
2022/04/03 02:22:38;;;;;;;4.50;4.10;;;1.70;79.70;;;;;;943551;149;27413;-74
2022/04/03 02:25:09;;;;;;;4.33;3.87;;;1.70;79.80;;;;;;958910;146;27445;-73
2022/04/03 02:27:31;;;;;;;4.80;4.13;;;1.70;79.90;;;;;;958251;146;27285;-74
2022/04/03 02:29:58;;;;;;;4.43;3.97;;;1.70;79.80;;;;;;960656;146;27339;-74
2022/04/03 02:32:25;;;;;;;6.43;4.43;;;1.60;80.00;;;;;;940496;149;27319;-74
2022/04/03 02:34:51;;;;;;;4.63;4.23;;;1.60;80.00;;;;;;960257;146;27323;-73
2022/04/03 02:37:18;;;;;;;4.33;3.93;;;1.60;79.60;;;;;;959792;146;27409;-74
2022/04/03 02:39:45;;;;;;;4.57;4.17;;;1.60;80.10;;;;;;958601;146;27299;-74
2022/04/03 02:42:11;;;;;;;5.10;4.07;;;1.60;80.20;;;;;;958258;146;27318;-74
2022/04/03 02:44:38;;;;;;;5.23;4.73;;;1.60;80.30;;;;;;940749;149;27357;-74
2022/04/03 02:47:04;;;;;;;4.67;4.23;;;1.60;80.30;;;;;;959385;146;27338;-73
2022/04/03 02:49:31;;;;;;;5.10;3.80;;;1.50;80.30;;;;;;944031;148;27307;-77
2022/04/03 02:51:57;;;;;;;5.33;4.40;;;1.50;80.30;;;;;;960935;146;27453;-72
2022/04/03 02:54:24;;;;;;;6.57;4.90;;;1.50;80.40;;;;;;941290;149;27287;-71
2022/04/03 02:56:50;;;;;;;4.53;4.13;;;1.40;80.40;;;;;;942920;149;27317;-72
2022/04/03 02:59:17;;;;;;;4.33;3.97;;;1.40;80.60;;;;;;942462;149;27410;-72
2022/04/03 03:01:44;;;;;;;4.93;4.37;;;1.40;80.70;;;;;;941517;148;27949;-72
2022/04/03 03:04:10;;;;;;;5.30;4.23;;;1.40;80.70;;;;;;956369;146;27358;-73
2022/04/03 03:06:37;;;;;;;4.67;4.27;;;1.30;80.80;;;;;;936640;149;27330;-72
2022/04/03 03:09:03;;;;;;;5.67;4.23;;;1.30;81.00;;;;;;957726;146;27434;-73
2022/04/03 03:11:30;;;;;;;4.87;4.47;;;1.30;81.00;;;;;;935974;149;27365;-72
2022/04/03 03:13:57;;;;;;;6.07;4.33;;;1.30;81.00;;;;;;958216;146;27359;-72
2022/04/03 03:16:23;;;;;;;4.63;4.23;;;1.20;81.00;;;;;;941230;149;27351;-72
2022/04/03 03:18:50;;;;;;;5.40;4.53;;;1.20;81.20;;;;;;940240;149;27312;-72
2022/04/03 03:21:16;;;;;;;6.43;4.93;;;1.20;81.50;;;;;;942658;148;27374;-74
2022/04/03 03:23:43;;;;;;;5.47;4.57;;;1.20;81.40;;;;;;958142;146;28813;-74
2022/04/03 03:26:09;;;;;;;5.53;5.03;;;1.20;81.70;;;;;;935760;149;27391;-72
2022/04/03 03:28:36;;;;;;;7.40;4.80;;;1.10;81.80;;;;;;937163;149;27305;-72
2022/04/03 03:31:03;;;;;;;5.27;4.73;;;1.10;81.70;;;;;;959384;146;27269;-72
2022/04/03 03:33:29;;;;;;;5.40;4.57;;;1.10;81.90;;;;;;958088;146;27355;-73
2022/04/03 03:35:56;;;;;;;5.40;4.47;;;1.10;82.00;;;;;;941761;149;27352;-74
2022/04/03 03:38:22;;;;;;;5.00;4.53;;;1.10;82.10;;;;;;941916;149;27502;-72
2022/04/03 03:40:49;;;;;;;5.50;5.00;;;1.10;82.10;;;;;;961654;146;27271;-72
2022/04/03 03:43:16;;;;;;;7.83;4.90;;;1.10;82.10;;;;;;959444;146;27311;-72
2022/04/03 03:45:42;;;;;;;4.27;3.87;;;1.10;82.20;;;;;;941922;149;27700;-73
2022/04/03 03:48:10;;;;;;;5.60;4.90;;;1.10;82.10;;;;;;959855;146;27278;-74
2022/04/03 03:50:35;;;;;;;4.80;4.40;;;1.00;82.10;;;;;;960214;146;27239;-72
2022/04/03 03:53:02;;;;;;;4.97;4.57;;;1.00;82.10;;;;;;929005;149;27453;-72
2022/04/03 03:55:28;;;;;;;5.20;4.57;;;1.00;82.10;;;;;;928571;150;27440;-73
2022/04/03 03:57:55;;;;;;;5.13;3.90;;;1.00;82.30;;;;;;939643;148;27278;-74
2022/04/03 04:00:22;;;;;;;5.60;4.67;;;0.90;82.30;;;;;;947810;147;27437;-72
2022/04/03 04:02:48;;;;;;;5.60;4.60;;;0.90;82.40;;;;;;924544;150;27379;-72
2022/04/03 04:05:15;;;;;;;5.20;4.63;;;0.90;82.50;;;;;;929094;150;27314;-72
2022/04/03 04:07:44;;;;;;;5.00;4.50;;;0.90;82.60;;;;;;947293;147;27286;-72
2022/04/03 04:10:13;;;;;;;4.93;4.17;;;0.90;82.50;;;;;;946795;147;27371;-72
2022/04/03 04:12:39;;;;;;;4.30;3.90;;;0.90;82.60;;;;;;946099;147;27383;-72
2022/04/03 04:15:04;;;;;;;5.20;4.70;;;0.80;82.60;;;;;;946821;147;27265;-73
2022/04/03 04:17:33;;;;;;;4.23;3.83;;;0.80;82.80;;;;;;947228;147;27314;-72
2022/04/03 04:20:00;;;;;;;5.60;4.60;;;0.80;82.70;;;;;;928603;150;27442;-72
2022/04/03 04:22:26;;;;;;;4.67;4.27;;;0.80;82.60;;;;;;945661;147;27418;-74
2022/04/03 04:24:53;;;;;;;4.47;4.00;;;0.80;82.60;;;;;;947636;147;27471;-72
2022/04/03 04:27:20;;;;;;;5.40;3.77;;;0.80;82.70;;;;;;946150;147;27298;-72
2022/04/03 04:29:46;;;;;;;5.57;4.97;;;0.70;82.70;;;;;;946713;147;27313;-72
2022/04/03 04:32:13;;;;;;;4.10;3.60;;;0.70;82.80;;;;;;948270;146;27300;-72
2022/04/03 04:34:39;;;;;;;4.40;4.00;;;0.70;82.80;;;;;;923396;150;27374;-72
2022/04/03 04:37:06;;;;;;;4.53;4.13;;;0.70;82.80;;;;;;947424;147;27446;-72
2022/04/03 04:39:33;;;;;;;4.37;3.97;;;0.70;82.90;;;;;;947648;147;27298;-72
2022/04/03 04:41:59;;;;;;;5.40;4.27;;;0.70;82.90;;;;;;947006;147;27281;-73
2022/04/03 04:44:26;;;;;;;5.47;4.47;;;0.70;83.10;;;;;;930293;150;27407;-72
2022/04/03 04:46:53;;;;;;;5.07;4.53;;;0.70;83.10;;;;;;944816;146;27364;-75
2022/04/03 04:49:19;;;;;;;4.57;4.17;;;0.70;83.20;;;;;;946642;146;27350;-72
2022/04/03 04:51:45;;;;;;;4.60;4.00;;;0.70;83.10;;;;;;929645;150;27329;-72
2022/04/03 04:54:12;;;;;;;5.67;4.47;;;0.60;83.10;;;;;;931005;149;27335;-71
2022/04/03 04:56:39;;;;;;;5.17;4.20;;;0.60;83.10;;;;;;929390;150;27338;-73
2022/04/03 04:59:05;;;;;;;8.40;4.17;;;0.60;83.10;;;;;;922891;150;27358;-74
2022/04/03 05:01:32;;;;;;;4.30;3.90;;;0.60;83.10;;;;;;924606;150;27365;-72
2022/04/03 05:03:58;;;;;;;4.63;4.17;;;0.60;83.20;;;;;;929194;150;27438;-72
2022/04/03 05:06:26;;;;;;;4.47;4.00;;;0.60;83.30;;;;;;948961;147;27285;-72
2022/04/03 05:08:52;;;;;;;4.27;3.73;;;0.60;83.50;;;;;;923431;151;27357;-72
2022/04/03 05:11:18;;;;;;;4.57;4.13;;;0.60;83.60;;;;;;945315;147;27344;-73
2022/04/03 05:13:45;;;;;;;4.70;3.70;;;0.60;83.70;;;;;;931623;150;27405;-72
2022/04/03 05:16:11;;;;;;;5.17;4.33;;;0.70;84.00;;;;;;929407;150;27343;-73
2022/04/03 05:18:38;;;;;;;4.53;4.10;;;0.70;84.30;;;;;;946838;147;27280;-73
2022/04/03 05:21:07;;;;;;;5.47;4.80;;;0.80;84.80;;;;;;947617;147;27341;-72
2022/04/03 05:23:34;;;;;;;4.73;4.30;;;0.80;85.00;;;;;;947025;147;27800;-72
2022/04/03 05:26:00;;;;;;;5.43;4.80;;;0.90;85.30;;;;;;945305;147;27352;-72
2022/04/03 05:28:27;;;;;;;5.73;4.60;;;1.00;85.40;;;;;;946933;147;27273;-72
2022/04/03 05:30:54;;;;;;;4.70;4.27;;;1.10;85.60;;;;;;930438;150;27420;-72
2022/04/03 05:33:20;;;;;;;5.03;4.60;;;1.20;85.80;;;;;;946564;147;27245;-72
2022/04/03 05:35:47;;;;;;;4.17;3.77;;;1.40;86.00;;;;;;922858;150;27359;-74
2022/04/03 05:38:13;;;;;;;4.57;4.27;;;1.50;86.20;;;;;;949199;147;27365;-73
2022/04/03 05:40:40;;;;;;;4.40;4.00;;;1.60;86.10;;;;;;945373;147;27301;-72
2022/04/03 05:43:08;;;;;;;4.93;4.30;;;1.80;86.10;;;;;;937454;149;27294;-72
2022/04/03 05:45:33;;;;;;;4.60;4.20;;;2.00;86.30;;;;;;928923;148;27263;-72
2022/04/03 05:48:01;;;;;;;4.57;4.17;;;2.20;86.80;;;;;;947039;146;27302;-74
2022/04/03 05:50:26;;;;;;;4.77;4.30;;;2.40;87.50;;;;;;929507;150;27326;-72
2022/04/03 05:52:53;;;;;;;4.33;3.93;;;2.60;87.90;;;;;;945901;147;27250;-75
2022/04/03 05:55:19;;;;;;;3.93;3.63;;;3.00;88.30;;;;;;929366;150;27338;-73
2022/04/03 05:57:46;;;;;;;5.03;4.40;;;3.30;88.70;;;;;;946615;147;27455;-74
2022/04/03 06:00:13;;;;;;;3.87;3.57;;;3.70;89.20;;;;;;948290;147;27421;-72
2022/04/03 06:02:51;;;;;;;3.77;3.43;;;4.10;89.50;;;;;;923380;150;27454;-73
2022/04/03 06:05:18;;;;;;;3.57;3.27;;;4.50;89.70;;;;;;946790;147;27344;-72
2022/04/03 06:07:44;;;;;;;3.63;3.30;;;5.00;90.00;;;;;;924289;151;27342;-73
2022/04/03 06:10:11;;;;;;;5.10;3.17;;;5.60;90.50;;;;;;945902;148;27304;-73
2022/04/03 06:12:38;;;;;;;5.13;3.73;;;6.10;90.00;;;;;;944007;148;27490;-73
2022/04/03 06:15:04;;;;;;;7.33;4.07;;;6.70;90.10;;;;;;945755;148;27437;-73
2022/04/03 06:17:31;;;;;;;3.50;3.20;;;7.40;89.60;;;;;;944571;148;27282;-73
2022/04/03 06:19:57;;;;;;;3.63;3.33;;;8.00;87.90;;;;;;942892;148;27379;-73
2022/04/03 06:22:24;;;;;;;3.83;3.53;;;8.60;86.10;;;;;;946188;148;27345;-74
2022/04/03 06:24:50;;;;;;;4.00;3.67;;;9.10;83.20;;;;;;946381;148;27444;-73
2022/04/03 06:27:17;;;;;;;4.27;3.47;;;9.60;80.90;;;;;;945181;148;27477;-73
2022/04/03 06:29:44;;;;;;;3.90;3.27;;;10.00;79.20;;;;;;945446;148;27325;-73
2022/04/03 06:32:10;;;;;;;3.50;3.20;;;10.40;78.10;;;;;;945143;148;27394;-73
2022/04/03 06:34:37;;;;;;;3.63;3.30;;;10.80;77.10;;;;;;945266;148;27377;-75
2022/04/03 06:37:03;;;;;;;3.73;3.43;;;11.10;75.20;;;;;;944623;148;27405;-73
2022/04/03 06:39:30;;;;;;;3.30;3.10;;;11.40;73.50;;;;;;943326;148;27858;-73
2022/04/03 06:41:57;;;;;;;3.40;3.10;;;11.60;72.40;;;;;;944611;148;27437;-73
2022/04/03 06:44:23;;;;;;;2.90;2.70;;;11.90;71.90;;;;;;944910;148;27352;-73
2022/04/03 06:46:50;;;;;;;4.93;3.00;;;12.10;70.90;;;;;;944578;148;27325;-73
2022/04/03 06:49:16;;;;;;;2.90;2.70;;;12.30;70.60;;;;;;945506;148;27380;-75
2022/04/03 06:51:43;;;;;;;3.40;3.10;;;12.60;70.40;;;;;;943177;148;28068;-73
2022/04/03 06:54:09;;;;;;;2.83;2.63;;;12.90;70.50;;;;;;941781;148;27359;-74
2022/04/03 06:56:36;;;;;;;3.23;2.93;;;13.30;69.90;;;;;;933878;153;27294;-73
2022/04/03 06:59:04;;;;;;;3.57;3.27;;;13.60;68.80;;;;;;935051;152;27316;-75
2022/04/03 07:01:29;;;;;;;3.13;2.90;;;14.00;68.30;;;;;;949331;147;27503;-75
2022/04/03 07:03:56;;;;;;;4.30;3.20;;;14.30;68.00;;;;;;931959;152;27377;-74
2022/04/03 07:06:22;;;;;;;3.72;2.95;;;14.70;67.40;;;;;;933917;153;27491;-74
2022/04/03 07:08:49;;;;;;;3.13;2.83;;;15.10;66.80;;;;;;950636;147;27380;-74
2022/04/03 07:11:16;;;;;;;2.95;2.75;;;15.50;66.40;;;;;;947012;148;27254;-74
2022/04/03 07:13:42;;;;;;;3.22;2.92;;;15.90;66.00;;;;;;949169;147;27440;-73
2022/04/03 07:16:09;;;;;;;4.05;2.80;;;16.30;65.40;;;;;;932317;152;27362;-75
2022/04/03 07:18:35;;;;;;;3.27;2.98;;;16.70;64.00;;;;;;951091;147;27413;-74
2022/04/03 07:21:02;;;;;;;2.83;2.62;;;17.10;62.10;;;;;;934404;150;27261;-74
2022/04/03 07:23:29;;;;;;;3.02;2.80;;;17.40;61.40;;;;;;933479;150;27425;-75
2022/04/03 07:25:55;;;;;;;2.70;2.50;;;17.70;60.80;;;;;;950746;147;27355;-74
2022/04/03 07:28:22;;;;;;;2.30;2.12;;;17.90;59.90;;;;;;947675;150;27736;-74
2022/04/03 07:30:48;;;;;;;2.75;2.52;;;18.20;59.70;;;;;;933931;152;27326;-74
2022/04/03 07:33:15;;;;;;;2.55;1.95;;;18.50;59.40;;;;;;933085;152;27419;-76
2022/04/03 07:35:41;;;;;;;2.62;2.42;;;18.80;59.20;;;;;;951640;150;27276;-75
2022/04/03 07:38:08;;;;;;;2.52;2.33;;;19.20;58.20;;;;;;950654;150;27340;-75
2022/04/03 07:40:35;;;;;;;2.37;2.10;;;19.50;57.90;;;;;;949870;148;27355;-75
2022/04/03 07:43:01;;;;;;;2.15;1.95;;;19.80;57.40;;;;;;935304;152;27321;-75
2022/04/03 07:45:28;;;;;;;3.70;2.30;;;20.10;57.00;;;;;;932345;153;27303;-75
2022/04/03 07:47:54;;;;;;;1.95;1.85;;;20.40;56.10;;;;;;951988;150;27277;-75
2022/04/03 07:50:21;;;;;;;2.40;2.30;;;20.60;55.50;;;;;;950869;150;27372;-75
2022/04/03 07:52:48;;;;;;;3.83;2.42;;;20.90;54.10;;;;;;933056;153;27452;-75
2022/04/03 07:55:14;;;;;;;2.42;2.22;;;21.00;53.80;;;;;;948820;147;27350;-75
2022/04/03 07:57:41;;;;;;;2.60;2.40;;;21.10;52.40;;;;;;930638;150;27382;-75
2022/04/03 08:00:07;;;;;;;2.52;2.27;;;21.20;52.10;;;;;;930008;150;27345;-76
2022/04/03 08:02:34;;;;;;;2.30;2.10;;;21.40;52.00;;;;;;930451;149;27369;-75
2022/04/03 08:05:01;;;;;;;1.98;1.87;;;21.50;52.20;;;;;;925616;150;27356;-75
2022/04/03 08:07:45;;;;;;;2.45;2.02;;;21.60;51.60;;;;;;930768;150;27353;-75
2022/04/03 08:10:09;;;;;;;2.85;2.30;;;21.90;51.10;;;;;;946513;147;27398;-75
2022/04/03 08:12:35;;;;;;;2.58;1.92;;;22.10;50.60;;;;;;931578;149;27378;-75
2022/04/03 08:15:02;;;;;;;1.98;1.87;;;22.20;50.90;;;;;;948264;147;27358;-75
2022/04/03 08:17:28;;;;;;;1.90;1.80;;;22.30;50.00;;;;;;948648;147;27774;-75
2022/04/03 08:19:55;;;;;;;2.00;1.80;;;22.40;49.50;;;;;;946660;147;27298;-75
2022/04/03 08:22:21;;;;;;;1.72;1.62;;;22.50;49.80;;;;;;931452;150;27257;-76
2022/04/03 08:24:51;;;;;;;1.57;1.47;;;22.70;49.80;;;;;;947063;147;27726;-77
2022/04/03 08:27:15;;;;;;;2.25;2.05;;;22.90;48.60;;;;;;947804;147;27336;-76
2022/04/03 08:29:41;;;;;;;1.80;1.70;;;23.10;46.50;;;;;;927693;150;27355;-76
2022/04/03 08:32:08;;;;;;;1.77;1.67;;;23.10;45.20;;;;;;946639;147;27348;-76
2022/04/03 08:34:34;;;;;;;2.42;2.22;;;23.10;46.10;;;;;;946100;147;28132;-75
2022/04/03 08:37:01;;;;;;;1.72;1.60;;;23.00;46.40;;;;;;947151;147;27307;-76
2022/04/03 08:39:28;;;;;;;1.90;1.80;;;23.00;45.40;;;;;;946975;147;27375;-76
2022/04/03 08:41:56;;;;;;;2.58;1.62;;;23.10;46.00;;;;;;922784;150;27378;-76
2022/04/03 08:44:21;;;;;;;1.85;1.75;;;23.10;44.80;;;;;;945103;147;27291;-76
2022/04/03 08:46:48;;;;;;;1.92;1.72;;;23.10;44.70;;;;;;922223;150;27428;-76
2022/04/03 08:49:14;;;;;;;1.92;1.72;;;23.10;44.70;;;;;;944390;146;27454;-77
2022/04/03 08:51:41;;;;;;;2.25;1.52;;;23.10;44.00;;;;;;946020;147;27326;-76
2022/04/03 08:54:07;;;;;;;1.77;1.52;;;23.10;44.30;;;;;;946295;147;27328;-76
2022/04/03 08:56:34;;;;;;;1.57;1.47;;;23.10;44.20;;;;;;946456;146;27372;-76
2022/04/03 08:59:00;;;;;;;1.50;1.40;;;23.20;44.30;;;;;;921222;150;27352;-76
2022/04/03 09:01:27;;;;;;;1.45;1.35;;;23.20;43.60;;;;;;946385;147;27741;-76
2022/04/03 09:03:53;;;;;;;1.50;1.40;;;23.30;42.30;;;;;;921976;150;27387;-77
2022/04/03 09:06:23;;;;;;;1.87;1.40;;;23.40;42.80;;;;;;946306;147;27365;-76
2022/04/03 09:08:48;;;;;;;2.77;1.35;;;23.40;42.70;;;;;;946054;147;27256;-77
2022/04/03 09:11:13;;;;;;;1.57;1.47;;;23.50;41.40;;;;;;927933;150;27315;-76
2022/04/03 09:13:40;;;;;;;1.35;1.00;;;23.50;40.40;;;;;;947294;147;27342;-77
2022/04/03 09:16:06;;;;;;;2.42;1.20;;;23.40;40.00;;;;;;945284;147;27354;-76
2022/04/03 09:18:45;;;;;;;2.75;1.60;;;23.30;39.90;;;;;;929310;150;27356;-76
2022/04/03 09:21:23;;;;;;;1.75;1.30;;;23.20;40.10;;;;;;946946;147;27827;-76
2022/04/03 09:24:08;;;;;;;1.72;1.20;;;23.00;39.60;;;;;;944633;147;27321;-76
2022/04/03 09:26:34;;;;;;;1.20;1.20;;;22.90;39.30;;;;;;928681;149;27327;-75
2022/04/03 09:29:07;;;;;;;1.47;1.30;;;22.70;39.00;;;;;;928929;150;27365;-75
2022/04/03 09:31:34;;;;;;;1.20;1.10;;;22.60;39.70;;;;;;928661;149;28425;-75
2022/04/03 09:34:00;;;;;;;1.32;1.22;;;22.40;37.70;;;;;;928839;150;27397;-75
2022/04/03 09:36:30;;;;;;;1.10;1.00;;;22.20;38.90;;;;;;934621;150;27425;-76
2022/04/03 09:39:08;;;;;;;1.47;1.37;;;22.10;39.70;;;;;;930908;150;27441;-75
2022/04/03 09:41:34;;;;;;;0.98;0.88;;;22.00;40.00;;;;;;930902;150;27479;-75
2022/04/03 09:44:01;;;;;;;0.90;0.60;;;22.00;39.70;;;;;;930959;150;27368;-75
2022/04/03 09:46:30;;;;;;;1.00;1.00;;;22.00;40.30;;;;;;942416;146;27318;-76
2022/04/03 09:48:54;;;;;;;0.90;0.90;;;22.00;40.30;;;;;;924619;150;27298;-75
2022/04/03 09:51:22;;;;;;;0.90;0.90;;;22.00;39.50;;;;;;937791;149;27446;-76
2022/04/03 09:53:47;;;;;;;1.10;1.10;;;21.90;36.70;;;;;;930152;150;27468;-76
2022/04/03 09:56:14;;;;;;;1.32;1.22;;;21.60;37.00;;;;;;928881;149;27357;-76
2022/04/03 09:58:53;;;;;;;0.90;0.90;;;21.20;35.10;;;;;;926291;150;27357;-76
2022/04/03 10:01:26;;;;;;;1.40;1.30;;;20.80;36.60;;;;;;945996;147;27435;-76
2022/04/03 10:03:51;;;;;;;2.08;1.12;;;20.30;37.50;;;;;;946531;147;27323;-75
2022/04/03 10:06:18;;;;;;;1.77;1.30;;;19.90;36.60;;;;;;947654;147;27354;-75
2022/04/03 10:08:44;;;;;;;0.90;0.90;;;19.50;37.80;;;;;;930254;150;27288;-76
2022/04/03 10:11:11;;;;;;;1.00;1.00;;;19.20;37.60;;;;;;935810;148;27430;-75
2022/04/03 10:13:37;;;;;;;0.70;0.70;;;18.90;37.40;;;;;;947521;147;27392;-75
2022/04/03 10:16:04;;;;;;;1.40;1.30;;;18.60;38.10;;;;;;944988;148;27395;-75
2022/04/03 10:18:33;;;;;;;1.40;1.30;;;18.40;38.60;;;;;;944895;148;27316;-75
2022/04/03 10:20:58;;;;;;;1.30;1.20;;;18.20;38.80;;;;;;945367;148;27278;-75
2022/04/03 10:23:24;;;;;;;1.40;1.30;;;18.10;38.70;;;;;;944984;148;27287;-75
2022/04/03 10:25:50;;;;;;;1.55;1.45;;;17.90;38.60;;;;;;947127;148;27325;-76
2022/04/03 10:28:17;;;;;;;1.32;1.07;;;17.70;38.60;;;;;;944131;148;27540;-75
2022/04/03 10:30:43;;;;;;;2.70;1.53;;;17.40;38.10;;;;;;945551;148;27462;-75
2022/04/03 10:33:24;;;;;;;2.10;1.20;;;17.00;37.60;;;;;;945840;148;27454;-74
2022/04/03 10:36:07;;;;;;;1.40;1.30;;;16.60;37.10;;;;;;944059;148;27381;-75
2022/04/03 10:38:34;;;;;;;1.60;1.50;;;16.10;37.10;;;;;;944519;148;27844;-75
2022/04/03 10:41:01;;;;;;;1.20;1.20;;;15.60;38.00;;;;;;943556;148;27928;-75
2022/04/03 10:43:28;;;;;;;1.40;1.30;;;15.10;38.30;;;;;;944942;148;27376;-75
2022/04/03 10:45:54;;;;;;;0.97;0.97;;;14.70;38.80;;;;;;942309;148;27343;-75
2022/04/03 10:48:24;;;;;;;1.30;1.20;;;14.30;39.00;;;;;;943926;148;27338;-75
2022/04/03 10:51:08;;;;;;;1.73;1.43;;;14.10;39.60;;;;;;942568;148;27297;-75
2022/04/03 10:53:37;;;;;;;2.10;1.20;;;13.80;40.00;;;;;;944097;148;27388;-75
2022/04/03 10:56:09;;;;;;;1.80;1.70;;;13.60;39.90;;;;;;942889;148;27281;-75
2022/04/03 10:58:41;;;;;;;1.53;1.43;;;13.40;40.00;;;;;;932046;150;27393;-74
2022/04/03 11:01:08;;;;;;;1.53;1.43;;;13.30;39.40;;;;;;928231;150;27371;-75
2022/04/03 11:03:34;;;;;;;1.50;1.40;;;13.00;39.60;;;;;;928324;150;27513;-75
2022/04/03 11:06:19;;;;;;;1.50;1.40;;;12.80;39.60;;;;;;930484;151;27356;-75
2022/04/03 11:08:45;;;;;;;1.60;1.50;;;12.50;39.80;;;;;;928232;149;27312;-75
2022/04/03 11:11:13;;;;;;;1.57;1.47;;;12.30;40.20;;;;;;926675;150;27497;-75
2022/04/03 11:13:39;;;;;;;1.60;1.50;;;12.10;40.30;;;;;;929745;150;27499;-75
2022/04/03 11:16:11;;;;;;;1.40;1.30;;;11.90;40.50;;;;;;928477;150;27398;-75
2022/04/03 11:18:38;;;;;;;3.40;1.80;;;11.80;40.50;;;;;;912033;153;27337;-75
2022/04/03 11:21:04;;;;;;;1.40;1.20;;;11.60;40.90;;;;;;942680;147;27325;-75
2022/04/03 11:23:31;;;;;;;1.63;1.53;;;11.50;41.10;;;;;;943207;147;27816;-75
2022/04/03 11:25:57;;;;;;;1.50;1.40;;;11.40;41.30;;;;;;944317;147;27367;-75
2022/04/03 11:28:24;;;;;;;1.40;1.30;;;11.40;41.20;;;;;;943158;147;27289;-74
2022/04/03 11:30:50;;;;;;;1.30;1.30;;;11.30;41.50;;;;;;944090;147;27287;-75
2022/04/03 11:33:17;;;;;;;1.60;1.50;;;11.30;41.80;;;;;;945059;147;27252;-75
2022/04/03 11:35:45;;;;;;;2.93;1.50;;;11.30;42.00;;;;;;945832;147;27314;-75
2022/04/03 11:38:10;;;;;;;1.50;1.40;;;11.30;42.30;;;;;;944816;147;27344;-75
2022/04/03 11:40:37;;;;;;;1.60;1.50;;;11.30;42.40;;;;;;944636;147;27323;-75
2022/04/03 11:43:09;;;;;;;1.20;1.10;;;11.40;42.70;;;;;;943574;147;27606;-75
2022/04/03 11:45:36;;;;;;;1.63;1.53;;;11.50;42.90;;;;;;943575;147;27425;-75
2022/04/03 11:48:15;;;;;;;1.53;1.40;;;11.60;43.00;;;;;;944683;147;27315;-75
2022/04/03 11:50:41;;;;;;;1.30;1.20;;;11.80;43.00;;;;;;945783;147;27339;-76
2022/04/03 11:53:08;;;;;;;1.63;1.53;;;12.00;43.30;;;;;;945310;147;27345;-75
2022/04/03 11:55:37;;;;;;;2.63;1.53;;;12.10;42.50;;;;;;944866;147;27338;-75
2022/04/03 11:58:04;;;;;;;1.57;1.47;;;12.30;42.80;;;;;;948854;146;27414;-75
2022/04/03 12:00:29;;;;;;;1.60;1.50;;;12.50;42.60;;;;;;945700;148;27344;-75
2022/04/03 12:02:57;;;;;;;4.07;1.93;;;12.60;42.40;;;;;;951860;148;27439;-75
2022/04/03 12:05:24;;;;;;;2.17;1.70;;;12.60;42.10;;;;;;945272;148;27710;-75
2022/04/03 12:07:51;;;;;;;1.60;1.50;;;12.60;41.70;;;;;;963741;145;27320;-75
2022/04/03 12:10:26;;;;;;;1.83;1.50;;;12.60;41.70;;;;;;966386;145;27283;-75
2022/04/03 12:12:54;;;;;;;1.47;1.37;;;12.50;41.60;;;;;;947066;148;27834;-76
2022/04/03 12:15:22;;;;;;;1.53;1.27;;;12.50;41.70;;;;;;963023;145;27423;-75
2022/04/03 12:17:48;;;;;;;1.20;1.10;;;12.40;41.80;;;;;;946214;148;27771;-75
2022/04/03 12:20:15;;;;;;;1.33;1.20;;;12.40;42.00;;;;;;961207;145;27302;-75
2022/04/03 12:22:42;;;;;;;1.60;1.50;;;12.40;42.30;;;;;;964892;145;28101;-75
2022/04/03 12:25:08;;;;;;;1.70;1.60;;;12.50;42.30;;;;;;963449;145;27423;-75
2022/04/03 12:27:37;;;;;;;1.60;1.50;;;12.50;42.50;;;;;;948898;148;27372;-75
2022/04/03 12:30:01;;;;;;;2.20;1.70;;;12.50;41.80;;;;;;946725;148;27350;-75
2022/04/03 12:32:35;;;;;;;1.67;1.57;;;12.50;40.80;;;;;;966491;145;27308;-74
2022/04/03 12:34:57;;;;;;;1.53;1.40;;;12.40;40.90;;;;;;947964;148;27465;-75
2022/04/03 12:37:24;;;;;;;1.70;1.60;;;12.30;41.10;;;;;;964354;145;27322;-74
2022/04/03 12:39:50;;;;;;;1.77;1.50;;;12.20;41.00;;;;;;944839;148;27487;-77
2022/04/03 12:42:26;;;;;;;1.60;1.50;;;12.10;41.00;;;;;;963221;145;27235;-77
2022/04/03 12:44:58;;;;;;;2.37;1.60;;;11.90;41.00;;;;;;963350;145;27353;-76
2022/04/03 12:47:24;;;;;;;1.80;1.70;;;11.70;41.20;;;;;;946621;148;27497;-75
2022/04/03 12:49:51;;;;;;;1.73;1.60;;;11.60;41.30;;;;;;963597;145;27703;-75
2022/04/03 12:52:21;;;;;;;2.33;1.83;;;11.50;41.70;;;;;;958349;145;27334;-75